KCCB/CCB METAR and TAF weather

Enter ICAO airport designator
Station Type Date Time Source
KCCB METAR 2022/06/26 07:55 UTC NOAA

KCCB 260755Z AUTO 00000KT 10SM CLR 24/06 A2997 RMK AO2


Station Type Date Time Source
KCCB Decoded METAR 2022/06/26 07:55 UTC NOAA

Station name not available
Jun 26, 2022 - 03:55 AM EDT / 2022.06.26 0755 UTC
Wind: Calm:0
Visibility: 10 mile(s):0
Sky conditions: clear
Temperature: 75 F (24 C)
Dew Point: 42 F (6 C)
Relative Humidity: 31%
Pressure (altimeter): 29.97 in. Hg (1014 hPa)
ob: KCCB 260755Z AUTO 00000KT 10SM CLR 24/06 A2997 RMK AO2
cycle: 8

Station Type Date Time Source
KCCB TAF UTC NOAA

Error!

Example: see airport list